Uasc Al Khor — D5IS4 — position and weather

sailwx.info

Track history (hours):
 
Tides and Currents Weather Stations Pressure Air Temp Water Temp Dewpoint Dewpoint Depression Visibility Wind Speed Wind Dir Waves Ship Positions

Uasc Al Khor

Last reported at 2017-Sep-08 23:47 UTC. Time now 2017-Sep-24 15:57 UTC.
Position N 31°27' E 032°18'.
Warning: this ship's position is 15 days out of date.

Length 300 m; draft 13.5 m.

Type: Ship (hazmat cat A). MMSI: 636016983.

Date/timePositionNaut miles runAvg speedWind from/ knotsBaromVisibWave heightAir tempDewpointWater temp
2017-Sep-08 23:47N 31°27' E 032°18'  
2017-Sep-06 15:15N 35°55' E 015°33'3316.7
2017-Sep-06 13:18N 36°03' E 014°54'716.3
2017-Sep-06 12:54N 36°03' E 014°46'1016.1
2017-Sep-06 12:17N 36°05' E 014°34'516.4
2017-Sep-06 12:00N 36°06' E 014°29'816.6
2017-Sep-06 11:30N 36°10' E 014°20'816.6
2017-Sep-06 11:01N 36°14' E 014°11'816.8
2017-Sep-06 10:30N 36°18' E 014°01'917.4
2017-Sep-06 10:00N 36°22' E 013°52'917.4
2017-Sep-06 09:30N 36°26' E 013°42'1417.3
2017-Sep-06 08:42N 36°33' E 013°27'417.1
2017-Sep-06 08:29N 36°34' E 013°23'817.1
2017-Sep-06 07:59N 36°38' E 013°13'10917.1
2017-Sep-06 01:38N 37°22' E 011°09'217.5
2017-Sep-06 01:30N 37°23' E 011°07'2217.8
2017-Sep-06 00:16N 37°29' E 010°40'26116.9
2017-Sep-05 08:51N 37°16' E 005°12'616.1
2017-Sep-05 08:29N 37°15' E 005°05'1816.1
2017-Sep-05 07:23N 37°13' E 004°43'716.2
2017-Sep-05 06:58N 37°12' E 004°34'716.0
2017-Sep-05 06:30N 37°11' E 004°25'815.8
2017-Sep-05 06:00N 37°10' E 004°15'815.8
2017-Sep-05 05:30N 37°10' E 004°06'816.0
2017-Sep-05 05:01N 37°09' E 003°56'816.2
2017-Sep-05 04:30N 37°08' E 003°45'816.3
2017-Sep-05 04:01N 37°07' E 003°35'816.5
2017-Sep-05 03:30N 37°06' E 003°25'816.5
2017-Sep-05 03:01N 37°05' E 003°15'816.6
2017-Sep-05 02:30N 37°04' E 003°04'816.6
2017-Sep-05 02:00N 37°03' E 002°54'816.4
2017-Sep-05 01:31N 37°02' E 002°44'816.2
2017-Sep-05 01:00N 37°01' E 002°34'815.9
2017-Sep-05 00:30N 36°60' E 002°24'815.5
2017-Sep-05 00:00N 36°58' E 002°15'815.6
2017-Sep-04 23:30N 36°56' E 002°05'815.9
2017-Sep-04 23:00N 36°54' E 001°56'816.0
2017-Sep-04 22:30N 36°52' E 001°46'1616.0
2017-Sep-04 21:30N 36°48' E 001°26'1316.3
2017-Sep-04 20:41N 36°45' E 001°10'416.4
2017-Sep-04 20:27N 36°44' E 001°06'1816.1
2017-Sep-04 19:21N 36°40' E 000°44'716.1
2017-Sep-04 18:55N 36°37' E 000°36'716.2
2017-Sep-04 18:29N 36°36' E 000°27'4316.8
2017-Sep-04 15:57N 36°25' W 000°24'817.0
2017-Sep-04 15:29N 36°23' W 000°34'816.9
2017-Sep-04 15:00N 36°21' W 000°43'21917.6
2017-Sep-04 02:31N 35°59' W 005°14'019.0
2017-Sep-04 02:30N 35°59' W 005°14'918.7
2017-Sep-04 02:00N 35°58' W 005°25'1117.6
2017-Sep-04 01:23N 35°55' W 005°38'817.7
2017-Sep-04 00:55N 35°55' W 005°49'4516.9
2017-Sep-03 22:14N 36°01' W 006°44'417.3
2017-Sep-03 22:00N 36°02' W 006°49'1017.5
2017-Sep-03 21:27N 36°05' W 007°01'817.3
2017-Sep-03 21:00N 36°06' W 007°10'917.1
2017-Sep-03 20:31N 36°09' W 007°20'816.9
2017-Sep-03 20:00N 36°11' W 007°30'917.2
2017-Sep-03 19:30N 36°13' W 007°40'817.0
2017-Sep-03 19:00N 36°15' W 007°50'917.2
2017-Sep-03 18:30N 36°17' W 008°01'917.5
2017-Sep-03 18:00N 36°20' W 008°11'917.2
2017-Sep-03 17:30N 36°22' W 008°22'917.1
2017-Sep-03 17:00N 36°24' W 008°32'917.4
2017-Sep-03 16:30N 36°27' W 008°42'917.4
2017-Sep-03 16:00N 36°29' W 008°53'917.4
2017-Sep-03 15:30N 36°31' W 009°03'917.7
2017-Sep-03 15:00N 36°33' W 009°14'1817.6
2017-Sep-03 14:01N 36°45' W 009°30'917.4
2017-Sep-03 13:31N 36°54' W 009°34'917.6
2017-Sep-03 13:00N 37°02' W 009°36'917.3
2017-Sep-03 12:30N 37°11' W 009°39'917.5
2017-Sep-03 12:00N 37°19' W 009°42'917.7
2017-Sep-03 11:31N 37°28' W 009°45'917.3
2017-Sep-03 11:00N 37°36' W 009°47'917.2
2017-Sep-03 10:30N 37°44' W 009°49'917.3
2017-Sep-03 10:00N 37°53' W 009°52'917.5
2017-Sep-03 09:30N 38°01' W 009°54'917.7
2017-Sep-03 09:00N 38°10' W 009°57'917.4
2017-Sep-03 08:31N 38°18' W 009°59'917.3
2017-Sep-03 08:00N 38°27' W 010°02'917.2
2017-Sep-03 07:30N 38°35' W 010°04'917.2
2017-Sep-03 07:00N 38°44' W 010°06'917.5
2017-Sep-03 06:30N 38°52' W 010°06'917.8
2017-Sep-03 06:00N 39°01' W 010°06'917.9
2017-Sep-03 05:30N 39°10' W 010°06'917.7
2017-Sep-03 05:00N 39°19' W 010°06'917.9
2017-Sep-03 04:31N 39°28' W 010°06'917.8
2017-Sep-03 04:00N 39°37' W 010°06'917.7
2017-Sep-03 03:31N 39°46' W 010°07'917.6
2017-Sep-03 03:00N 39°55' W 010°06'917.7
2017-Sep-03 02:30N 40°03' W 010°05'917.6
2017-Sep-03 02:00N 40°12' W 010°05'917.7
2017-Sep-03 01:30N 40°21' W 010°05'1117.4
2017-Sep-03 00:51N 40°32' W 010°05'617.6
2017-Sep-03 00:30N 40°39' W 010°05'917.5
2017-Sep-03 00:00N 40°47' W 010°05'917.7
2017-Sep-02 23:30N 40°56' W 010°06'917.7
2017-Sep-02 23:00N 41°05' W 010°06'1017.9
2017-Sep-02 22:26N 41°15' W 010°07'1118.1
2017-Sep-02 21:48N 41°27' W 010°07'618.5
2017-Sep-02 21:30N 41°32' W 010°07'1818.3
2017-Sep-02 20:31N 41°50' W 010°08'118.3
2017-Sep-02 20:28N 41°51' W 010°08'818.1
2017-Sep-02 20:00N 41°60' W 010°08'918.0
2017-Sep-02 19:30N 42°09' W 010°08'44217.4
2017-Sep-01 18:07N 48°52' W 005°50'217.4
2017-Sep-01 18:00N 48°54' W 005°48'918.1
2017-Sep-01 17:29N 48°59' W 005°36'817.5
2017-Sep-01 17:00N 49°03' W 005°25'816.5
2017-Sep-01 16:30N 49°07' W 005°14'915.5
2017-Sep-01 15:57N 49°11' W 005°02'817.9
2017-Sep-01 15:31N 49°15' W 004°52'917.7
2017-Sep-01 15:00N 49°20' W 004°40'3617.4
2017-Sep-01 12:54N 49°38' W 003°51'1417.8
2017-Sep-01 12:08N 49°45' W 003°33'217.8
2017-Sep-01 12:00N 49°46' W 003°30'918.1
2017-Sep-01 11:30N 49°51' W 003°18'918.4
2017-Sep-01 11:00N 49°55' W 003°06'918.6
2017-Sep-01 10:31N 49°59' W 002°52'918.8
2017-Sep-01 10:01N 50°02' W 002°38'1018.1
2017-Sep-01 09:26N 50°03' W 002°22'818.7
2017-Sep-01 09:00N 50°00' W 002°10'918.7
2017-Sep-01 08:30N 49°58' W 001°56'918.5
2017-Sep-01 08:00N 49°55' W 001°43'918.5
2017-Sep-01 07:31N 49°53' W 001°29'917.7
2017-Sep-01 07:01N 49°50' W 001°16'917.9
2017-Sep-01 06:31N 49°47' W 001°03'917.6
2017-Sep-01 06:01N 49°44' W 000°50'2117.4
2017-Sep-01 04:50N 49°35' W 000°21'617.2
2017-Sep-01 04:30N 49°34' W 000°13'612.2
2017-Sep-01 04:00N 49°31' W 000°04'713.8
2017-Sep-01 03:31N 49°29' E 000°06'3 5.3
2017-Sep-01 03:01N 49°28' E 000°10'0 0.5
2017-Sep-01 02:30N 49°29' E 000°10'0 0.0
2017-Sep-01 01:59N 49°29' E 000°10'0 0.0
2017-Sep-01 01:29N 49°29' E 000°10'0 0.0
2017-Sep-01 00:59N 49°29' E 000°10'0 0.0
2017-Sep-01 00:29N 49°29' E 000°10'0 0.0
2017-Aug-31 23:59N 49°29' E 000°10'0 0.0
2017-Aug-31 23:29N 49°29' E 000°10'0 0.0
2017-Aug-31 22:59N 49°29' E 000°10'0 0.0
2017-Aug-31 22:29N 49°29' E 000°10'0 0.0
2017-Aug-31 21:59N 49°29' E 000°10'0 0.0
2017-Aug-31 21:29N 49°29' E 000°10'0 0.0
2017-Aug-31 20:59N 49°29' E 000°10'0 0.0
2017-Aug-31 20:29N 49°29' E 000°10'0 0.0
2017-Aug-31 19:59N 49°29' E 000°10'0 0.0
2017-Aug-31 19:29N 49°29' E 000°10'0 0.0
2017-Aug-31 18:59N 49°29' E 000°10'0 0.0
2017-Aug-31 18:29N 49°29' E 000°10'0 0.0
2017-Aug-31 17:59N 49°29' E 000°10'0 0.0
2017-Aug-31 17:29N 49°29' E 000°10'0 0.0
2017-Aug-31 16:59N 49°29' E 000°10'0 0.0
2017-Aug-31 16:29N 49°29' E 000°10'0 0.0
2017-Aug-31 15:59N 49°29' E 000°10'0 0.0
2017-Aug-31 15:29N 49°29' E 000°10'0 0.0
2017-Aug-31 14:59N 49°29' E 000°10'0 0.0
2017-Aug-31 14:29N 49°29' E 000°10'0 0.0
2017-Aug-31 13:59N 49°29' E 000°10'0 0.0
2017-Aug-31 13:29N 49°29' E 000°10'0 0.0
2017-Aug-31 12:59N 49°29' E 000°10'0 0.0
2017-Aug-31 12:29N 49°29' E 000°10'0 0.0
2017-Aug-31 11:59N 49°29' E 000°10'0 0.0
2017-Aug-31 11:30N 49°29' E 000°10'1 1.7
2017-Aug-31 11:00N 49°28' E 000°09'5 9.6
2017-Aug-31 10:31N 49°30' E 000°02'713.0
2017-Aug-31 10:01N 49°32' W 000°08'3 6.8
2017-Aug-31 09:31N 49°35' W 000°10'815.3
2017-Aug-31 09:00N 49°42' W 000°10'714.6
2017-Aug-31 08:31N 49°50' W 000°09'714.8
2017-Aug-31 08:00N 49°57' W 000°08'1314.8
2017-Aug-31 07:07N 50°10' W 000°07'214.8
2017-Aug-31 07:00N 50°12' W 000°07'714.6
2017-Aug-31 06:30N 50°19' W 000°07'714.5
2017-Aug-31 06:01N 50°26' W 000°05'714.2
2017-Aug-31 05:31N 50°29' E 000°06'714.6
2017-Aug-31 05:00N 50°31' E 000°17'714.6
2017-Aug-31 04:31N 50°33' E 000°28'714.5
2017-Aug-31 04:00N 50°36' E 000°38'714.5
2017-Aug-31 03:31N 50°40' E 000°48'713.8
2017-Aug-31 03:00N 50°44' E 000°57'713.6
2017-Aug-31 02:30N 50°48' E 001°06'714.1
2017-Aug-31 02:00N 50°52' E 001°14'814.1
2017-Aug-31 01:27N 50°58' E 001°22'614.1
2017-Aug-31 01:00N 51°02' E 001°30'714.7
2017-Aug-31 00:31N 51°07' E 001°39'612.8
2017-Aug-31 00:01N 51°03' E 001°46'613.0
2017-Aug-30 23:31N 51°03' E 001°57'816.1
2017-Aug-30 23:00N 51°03' E 002°09'2 4.5
2017-Aug-30 22:28N 51°00' E 002°11'0 0.0
2017-Aug-30 21:58N 51°00' E 002°11'0 0.0
2017-Aug-30 21:28N 51°00' E 002°11'0 0.0
2017-Aug-30 20:58N 51°00' E 002°11'0 0.0
2017-Aug-30 20:28N 51°00' E 002°11'0 0.0
2017-Aug-30 19:55N 51°00' E 002°11'0 0.0
2017-Aug-30 19:28N 51°00' E 002°11'0 0.0
2017-Aug-30 18:58N 51°00' E 002°11'0 0.0
2017-Aug-30 18:28N 51°00' E 002°11'0 0.0
2017-Aug-30 17:58N 51°00' E 002°11'0 0.0
2017-Aug-30 17:28N 51°00' E 002°11'0 0.0
2017-Aug-30 16:58N 51°00' E 002°11'0 0.0
2017-Aug-30 16:28N 51°00' E 002°11'0 0.0
2017-Aug-30 15:52N 51°00' E 002°11'0 0.0
2017-Aug-30 15:28N 51°00' E 002°11'0 0.0
2017-Aug-30 14:58N 51°00' E 002°11'0 0.0
2017-Aug-30 14:28N 51°00' E 002°11'0 0.0
2017-Aug-30 13:58N 51°00' E 002°11'0 0.2
2017-Aug-30 13:30N 51°00' E 002°11'2 3.2
2017-Aug-30 13:00N 51°02' E 002°10'5 9.4
2017-Aug-30 12:30N 51°03' E 002°03'714.2
2017-Aug-30 12:00N 51°03' E 001°51'1 2.7
2017-Aug-30 11:28N 51°03' E 001°49'0 0.0
2017-Aug-30 10:58N 51°03' E 001°49'0 0.0
2017-Aug-30 10:28N 51°03' E 001°49'0 0.1
2017-Aug-30 09:58N 51°03' E 001°49'0 0.1
2017-Aug-30 09:28N 51°03' E 001°49'0 0.0
2017-Aug-30 08:58N 51°03' E 001°49'0 0.0
2017-Aug-30 08:28N 51°03' E 001°49'0 0.1
2017-Aug-30 07:58N 51°03' E 001°49'0 0.1
2017-Aug-30 07:28N 51°03' E 001°50'0 0.1
2017-Aug-30 06:58N 51°03' E 001°50'0 0.1
2017-Aug-30 06:28N 51°03' E 001°50'0 0.1
2017-Aug-30 05:58N 51°03' E 001°50'0 0.0
2017-Aug-30 05:28N 51°03' E 001°50'0 0.1
2017-Aug-30 04:58N 51°03' E 001°50'0 0.1
2017-Aug-30 04:28N 51°03' E 001°50'0 0.1
2017-Aug-30 03:58N 51°03' E 001°50'0 0.1
2017-Aug-30 03:28N 51°03' E 001°49'0 0.1
2017-Aug-30 02:55N 51°03' E 001°49'0 0.2
2017-Aug-30 02:28N 51°03' E 001°49'0 0.1
2017-Aug-30 01:58N 51°03' E 001°49'0 0.0
2017-Aug-30 01:28N 51°03' E 001°49'0 0.0
2017-Aug-30 00:58N 51°03' E 001°49'0 0.0
2017-Aug-30 00:28N 51°03' E 001°49'0 0.0
2017-Aug-29 23:58N 51°03' E 001°49'  
Track history (hours):
 
Tides and Currents Weather Stations Pressure Air Temp Water Temp Dewpoint Dewpoint Depression Visibility Wind Speed Wind Dir Waves Ship Positions

Uasc Al Khor

Last reported at 2017-Sep-08 23:47 UTC. Time now 2017-Sep-24 15:57 UTC.
Position N 31°27' E 032°18'.
Warning: this ship's position is 15 days out of date.

Length 300 m; draft 13.5 m.

Type: Ship (hazmat cat A). MMSI: 636016983.

Date/timePositionNaut miles runAvg speedWind from/ knotsBaromVisibWave heightAir tempDewpointWater temp
2017-Sep-08 23:47N 31°27' E 032°18'  
2017-Sep-06 15:15N 35°55' E 015°33'3316.7
2017-Sep-06 13:18N 36°03' E 014°54'716.3
2017-Sep-06 12:54N 36°03' E 014°46'1016.1
2017-Sep-06 12:17N 36°05' E 014°34'516.4
2017-Sep-06 12:00N 36°06' E 014°29'816.6
2017-Sep-06 11:30N 36°10' E 014°20'816.6
2017-Sep-06 11:01N 36°14' E 014°11'816.8
2017-Sep-06 10:30N 36°18' E 014°01'917.4
2017-Sep-06 10:00N 36°22' E 013°52'917.4
2017-Sep-06 09:30N 36°26' E 013°42'1417.3
2017-Sep-06 08:42N 36°33' E 013°27'417.1
2017-Sep-06 08:29N 36°34' E 013°23'817.1
2017-Sep-06 07:59N 36°38' E 013°13'10917.1
2017-Sep-06 01:38N 37°22' E 011°09'217.5
2017-Sep-06 01:30N 37°23' E 011°07'2217.8
2017-Sep-06 00:16N 37°29' E 010°40'26116.9
2017-Sep-05 08:51N 37°16' E 005°12'616.1
2017-Sep-05 08:29N 37°15' E 005°05'1816.1
2017-Sep-05 07:23N 37°13' E 004°43'716.2
2017-Sep-05 06:58N 37°12' E 004°34'716.0
2017-Sep-05 06:30N 37°11' E 004°25'815.8
2017-Sep-05 06:00N 37°10' E 004°15'815.8
2017-Sep-05 05:30N 37°10' E 004°06'816.0
2017-Sep-05 05:01N 37°09' E 003°56'816.2
2017-Sep-05 04:30N 37°08' E 003°45'816.3
2017-Sep-05 04:01N 37°07' E 003°35'816.5
2017-Sep-05 03:30N 37°06' E 003°25'816.5
2017-Sep-05 03:01N 37°05' E 003°15'816.6
2017-Sep-05 02:30N 37°04' E 003°04'816.6
2017-Sep-05 02:00N 37°03' E 002°54'816.4
2017-Sep-05 01:31N 37°02' E 002°44'816.2
2017-Sep-05 01:00N 37°01' E 002°34'815.9
2017-Sep-05 00:30N 36°60' E 002°24'815.5
2017-Sep-05 00:00N 36°58' E 002°15'815.6
2017-Sep-04 23:30N 36°56' E 002°05'815.9
2017-Sep-04 23:00N 36°54' E 001°56'816.0
2017-Sep-04 22:30N 36°52' E 001°46'1616.0
2017-Sep-04 21:30N 36°48' E 001°26'1316.3
2017-Sep-04 20:41N 36°45' E 001°10'416.4
2017-Sep-04 20:27N 36°44' E 001°06'1816.1
2017-Sep-04 19:21N 36°40' E 000°44'716.1
2017-Sep-04 18:55N 36°37' E 000°36'716.2
2017-Sep-04 18:29N 36°36' E 000°27'4316.8
2017-Sep-04 15:57N 36°25' W 000°24'817.0
2017-Sep-04 15:29N 36°23' W 000°34'816.9
2017-Sep-04 15:00N 36°21' W 000°43'21917.6
2017-Sep-04 02:31N 35°59' W 005°14'019.0
2017-Sep-04 02:30N 35°59' W 005°14'918.7
2017-Sep-04 02:00N 35°58' W 005°25'1117.6
2017-Sep-04 01:23N 35°55' W 005°38'817.7
2017-Sep-04 00:55N 35°55' W 005°49'4516.9
2017-Sep-03 22:14N 36°01' W 006°44'417.3
2017-Sep-03 22:00N 36°02' W 006°49'1017.5
2017-Sep-03 21:27N 36°05' W 007°01'817.3
2017-Sep-03 21:00N 36°06' W 007°10'917.1
2017-Sep-03 20:31N 36°09' W 007°20'816.9
2017-Sep-03 20:00N 36°11' W 007°30'917.2
2017-Sep-03 19:30N 36°13' W 007°40'817.0
2017-Sep-03 19:00N 36°15' W 007°50'917.2
2017-Sep-03 18:30N 36°17' W 008°01'917.5
2017-Sep-03 18:00N 36°20' W 008°11'917.2
2017-Sep-03 17:30N 36°22' W 008°22'917.1
2017-Sep-03 17:00N 36°24' W 008°32'917.4
2017-Sep-03 16:30N 36°27' W 008°42'917.4
2017-Sep-03 16:00N 36°29' W 008°53'917.4
2017-Sep-03 15:30N 36°31' W 009°03'917.7
2017-Sep-03 15:00N 36°33' W 009°14'1817.6
2017-Sep-03 14:01N 36°45' W 009°30'917.4
2017-Sep-03 13:31N 36°54' W 009°34'917.6
2017-Sep-03 13:00N 37°02' W 009°36'917.3
2017-Sep-03 12:30N 37°11' W 009°39'917.5
2017-Sep-03 12:00N 37°19' W 009°42'917.7
2017-Sep-03 11:31N 37°28' W 009°45'917.3
2017-Sep-03 11:00N 37°36' W 009°47'917.2
2017-Sep-03 10:30N 37°44' W 009°49'917.3
2017-Sep-03 10:00N 37°53' W 009°52'917.5
2017-Sep-03 09:30N 38°01' W 009°54'917.7
2017-Sep-03 09:00N 38°10' W 009°57'917.4
2017-Sep-03 08:31N 38°18' W 009°59'917.3
2017-Sep-03 08:00N 38°27' W 010°02'917.2
2017-Sep-03 07:30N 38°35' W 010°04'917.2
2017-Sep-03 07:00N 38°44' W 010°06'917.5
2017-Sep-03 06:30N 38°52' W 010°06'917.8
2017-Sep-03 06:00N 39°01' W 010°06'917.9
2017-Sep-03 05:30N 39°10' W 010°06'917.7
2017-Sep-03 05:00N 39°19' W 010°06'917.9
2017-Sep-03 04:31N 39°28' W 010°06'917.8
2017-Sep-03 04:00N 39°37' W 010°06'917.7
2017-Sep-03 03:31N 39°46' W 010°07'917.6
2017-Sep-03 03:00N 39°55' W 010°06'917.7
2017-Sep-03 02:30N 40°03' W 010°05'917.6
2017-Sep-03 02:00N 40°12' W 010°05'917.7
2017-Sep-03 01:30N 40°21' W 010°05'1117.4
2017-Sep-03 00:51N 40°32' W 010°05'617.6
2017-Sep-03 00:30N 40°39' W 010°05'917.5
2017-Sep-03 00:00N 40°47' W 010°05'917.7
2017-Sep-02 23:30N 40°56' W 010°06'917.7
2017-Sep-02 23:00N 41°05' W 010°06'1017.9
2017-Sep-02 22:26N 41°15' W 010°07'1118.1
2017-Sep-02 21:48N 41°27' W 010°07'618.5
2017-Sep-02 21:30N 41°32' W 010°07'1818.3
2017-Sep-02 20:31N 41°50' W 010°08'118.3
2017-Sep-02 20:28N 41°51' W 010°08'818.1
2017-Sep-02 20:00N 41°60' W 010°08'918.0
2017-Sep-02 19:30N 42°09' W 010°08'44217.4
2017-Sep-01 18:07N 48°52' W 005°50'217.4
2017-Sep-01 18:00N 48°54' W 005°48'918.1
2017-Sep-01 17:29N 48°59' W 005°36'817.5
2017-Sep-01 17:00N 49°03' W 005°25'816.5
2017-Sep-01 16:30N 49°07' W 005°14'915.5
2017-Sep-01 15:57N 49°11' W 005°02'817.9
2017-Sep-01 15:31N 49°15' W 004°52'917.7
2017-Sep-01 15:00N 49°20' W 004°40'3617.4
2017-Sep-01 12:54N 49°38' W 003°51'1417.8
2017-Sep-01 12:08N 49°45' W 003°33'217.8
2017-Sep-01 12:00N 49°46' W 003°30'918.1
2017-Sep-01 11:30N 49°51' W 003°18'918.4
2017-Sep-01 11:00N 49°55' W 003°06'918.6
2017-Sep-01 10:31N 49°59' W 002°52'918.8
2017-Sep-01 10:01N 50°02' W 002°38'1018.1
2017-Sep-01 09:26N 50°03' W 002°22'818.7
2017-Sep-01 09:00N 50°00' W 002°10'918.7
2017-Sep-01 08:30N 49°58' W 001°56'918.5
2017-Sep-01 08:00N 49°55' W 001°43'918.5
2017-Sep-01 07:31N 49°53' W 001°29'917.7
2017-Sep-01 07:01N 49°50' W 001°16'917.9
2017-Sep-01 06:31N 49°47' W 001°03'917.6
2017-Sep-01 06:01N 49°44' W 000°50'2117.4
2017-Sep-01 04:50N 49°35' W 000°21'617.2
2017-Sep-01 04:30N 49°34' W 000°13'612.2
2017-Sep-01 04:00N 49°31' W 000°04'713.8
2017-Sep-01 03:31N 49°29' E 000°06'3 5.3
2017-Sep-01 03:01N 49°28' E 000°10'0 0.5
2017-Sep-01 02:30N 49°29' E 000°10'0 0.0
2017-Sep-01 01:59N 49°29' E 000°10'0 0.0
2017-Sep-01 01:29N 49°29' E 000°10'0 0.0
2017-Sep-01 00:59N 49°29' E 000°10'0 0.0
2017-Sep-01 00:29N 49°29' E 000°10'0 0.0
2017-Aug-31 23:59N 49°29' E 000°10'0 0.0
2017-Aug-31 23:29N 49°29' E 000°10'0 0.0
2017-Aug-31 22:59N 49°29' E 000°10'0 0.0
2017-Aug-31 22:29N 49°29' E 000°10'0 0.0
2017-Aug-31 21:59N 49°29' E 000°10'0 0.0
2017-Aug-31 21:29N 49°29' E 000°10'0 0.0
2017-Aug-31 20:59N 49°29' E 000°10'0 0.0
2017-Aug-31 20:29N 49°29' E 000°10'0 0.0
2017-Aug-31 19:59N 49°29' E 000°10'0 0.0
2017-Aug-31 19:29N 49°29' E 000°10'0 0.0
2017-Aug-31 18:59N 49°29' E 000°10'0 0.0
2017-Aug-31 18:29N 49°29' E 000°10'0 0.0
2017-Aug-31 17:59N 49°29' E 000°10'0 0.0
2017-Aug-31 17:29N 49°29' E 000°10'0 0.0
2017-Aug-31 16:59N 49°29' E 000°10'0 0.0
2017-Aug-31 16:29N 49°29' E 000°10'0 0.0
2017-Aug-31 15:59N 49°29' E 000°10'0 0.0
2017-Aug-31 15:29N 49°29' E 000°10'0 0.0
2017-Aug-31 14:59N 49°29' E 000°10'0 0.0
2017-Aug-31 14:29N 49°29' E 000°10'0 0.0
2017-Aug-31 13:59N 49°29' E 000°10'0 0.0
2017-Aug-31 13:29N 49°29' E 000°10'0 0.0
2017-Aug-31 12:59N 49°29' E 000°10'0 0.0
2017-Aug-31 12:29N 49°29' E 000°10'0 0.0
2017-Aug-31 11:59N 49°29' E 000°10'0 0.0
2017-Aug-31 11:30N 49°29' E 000°10'1 1.7
2017-Aug-31 11:00N 49°28' E 000°09'5 9.6
2017-Aug-31 10:31N 49°30' E 000°02'713.0
2017-Aug-31 10:01N 49°32' W 000°08'3 6.8
2017-Aug-31 09:31N 49°35' W 000°10'815.3
2017-Aug-31 09:00N 49°42' W 000°10'714.6
2017-Aug-31 08:31N 49°50' W 000°09'714.8
2017-Aug-31 08:00N 49°57' W 000°08'1314.8
2017-Aug-31 07:07N 50°10' W 000°07'214.8
2017-Aug-31 07:00N 50°12' W 000°07'714.6
2017-Aug-31 06:30N 50°19' W 000°07'714.5
2017-Aug-31 06:01N 50°26' W 000°05'714.2
2017-Aug-31 05:31N 50°29' E 000°06'714.6
2017-Aug-31 05:00N 50°31' E 000°17'714.6
2017-Aug-31 04:31N 50°33' E 000°28'714.5
2017-Aug-31 04:00N 50°36' E 000°38'714.5
2017-Aug-31 03:31N 50°40' E 000°48'713.8
2017-Aug-31 03:00N 50°44' E 000°57'713.6
2017-Aug-31 02:30N 50°48' E 001°06'714.1
2017-Aug-31 02:00N 50°52' E 001°14'814.1
2017-Aug-31 01:27N 50°58' E 001°22'614.1
2017-Aug-31 01:00N 51°02' E 001°30'714.7
2017-Aug-31 00:31N 51°07' E 001°39'612.8
2017-Aug-31 00:01N 51°03' E 001°46'613.0
2017-Aug-30 23:31N 51°03' E 001°57'816.1
2017-Aug-30 23:00N 51°03' E 002°09'2 4.5
2017-Aug-30 22:28N 51°00' E 002°11'0 0.0
2017-Aug-30 21:58N 51°00' E 002°11'0 0.0
2017-Aug-30 21:28N 51°00' E 002°11'0 0.0
2017-Aug-30 20:58N 51°00' E 002°11'0 0.0
2017-Aug-30 20:28N 51°00' E 002°11'0 0.0
2017-Aug-30 19:55N 51°00' E 002°11'0 0.0
2017-Aug-30 19:28N 51°00' E 002°11'0 0.0
2017-Aug-30 18:58N 51°00' E 002°11'0 0.0
2017-Aug-30 18:28N 51°00' E 002°11'0 0.0
2017-Aug-30 17:58N 51°00' E 002°11'0 0.0
2017-Aug-30 17:28N 51°00' E 002°11'0 0.0
2017-Aug-30 16:58N 51°00' E 002°11'0 0.0
2017-Aug-30 16:28N 51°00' E 002°11'0 0.0
2017-Aug-30 15:52N 51°00' E 002°11'0 0.0
2017-Aug-30 15:28N 51°00' E 002°11'0 0.0
2017-Aug-30 14:58N 51°00' E 002°11'0 0.0
2017-Aug-30 14:28N 51°00' E 002°11'0 0.0
2017-Aug-30 13:58N 51°00' E 002°11'0 0.2
2017-Aug-30 13:30N 51°00' E 002°11'2 3.2
2017-Aug-30 13:00N 51°02' E 002°10'5 9.4
2017-Aug-30 12:30N 51°03' E 002°03'714.2
2017-Aug-30 12:00N 51°03' E 001°51'1 2.7
2017-Aug-30 11:28N 51°03' E 001°49'0 0.0
2017-Aug-30 10:58N 51°03' E 001°49'0 0.0
2017-Aug-30 10:28N 51°03' E 001°49'0 0.1
2017-Aug-30 09:58N 51°03' E 001°49'0 0.1
2017-Aug-30 09:28N 51°03' E 001°49'0 0.0
2017-Aug-30 08:58N 51°03' E 001°49'0 0.0
2017-Aug-30 08:28N 51°03' E 001°49'0 0.1
2017-Aug-30 07:58N 51°03' E 001°49'0 0.1
2017-Aug-30 07:28N 51°03' E 001°50'0 0.1
2017-Aug-30 06:58N 51°03' E 001°50'0 0.1
2017-Aug-30 06:28N 51°03' E 001°50'0 0.1
2017-Aug-30 05:58N 51°03' E 001°50'0 0.0
2017-Aug-30 05:28N 51°03' E 001°50'0 0.1
2017-Aug-30 04:58N 51°03' E 001°50'0 0.1
2017-Aug-30 04:28N 51°03' E 001°50'0 0.1
2017-Aug-30 03:58N 51°03' E 001°50'0 0.1
2017-Aug-30 03:28N 51°03' E 001°49'0 0.1
2017-Aug-30 02:55N 51°03' E 001°49'0 0.2
2017-Aug-30 02:28N 51°03' E 001°49'0 0.1
2017-Aug-30 01:58N 51°03' E 001°49'0 0.0
2017-Aug-30 01:28N 51°03' E 001°49'0 0.0
2017-Aug-30 00:58N 51°03' E 001°49'0 0.0
2017-Aug-30 00:28N 51°03' E 001°49'0 0.0
2017-Aug-29 23:58N 51°03' E 001°49'  

Dump ship's entire track history